メインページ
METAR-TAF:

METAR-TAF

空港 :

紋別, 日本

紋別空港

緯度: 44-15N, 経度: 143-32E, 海抜: 6m

現時点の気象観測

当レポートは16時間46分前の07:00(UTC)に作成
北西の風 10kt
気温 -9°C
湿度 52%
気圧 1014 hPa
視程10km以上
高度3000ftの雲はほとんどない

METAR: RJEB 180700Z 32010KT 9999 FEW030 M09/M17 Q1014

時間: 08:46 (23:46 UTC)


TAF: 見つかりません

4,000以上の空港の気象観測と天気予報(METAR報とTAF報)

利用可能な観測所は地図上に黄色い丸と赤い丸で示す。

丸の上にカーソルを重ねると観測所名を参照できる。

次にクリックすると気象観測と天気予報を参照できる。

マップの切り替え:黒色「×」印の緑ボタンをクリックして拡大、「-」印の緑ボタンをクリックして縮小、緑色の三角印をクリックして隣りの地図に切り替え


METAR-TAF: